Time;durP1;ratioP1;P1;durP2;ratioP2;P2;SDS_P1;SDS_P2;PMS_P1;PMS_P2;Temp;Humidity;BMP_temperature;BMP_pressure;BME280_temperature;BME280_humidity;BME280_pressure;Samples;Min_cycle;Max_cycle;Signal;HPM_P1;HPM_P2
2022/10/22 00:01:16;;;;;;;45.63;26.13;;;;;;;20.98;60.30;99214.22;5059746;28;20053;-65
2022/10/22 00:03:51;;;;;;;47.03;27.23;;;;;;;20.86;60.73;99206.25;5029054;28;20057;-65
2022/10/22 00:06:43;;;;;;;44.03;26.40;;;;;;;20.97;60.01;99218.03;5011937;28;20675;-66
2022/10/22 00:09:33;;;;;;;47.75;27.10;;;;;;;20.85;60.36;99214.75;4945862;28;20107;-66
2022/10/22 00:12:15;;;;;;;49.88;28.67;;;;;;;21.00;59.54;99222.13;5065062;28;20582;-65
2022/10/22 00:15:04;;;;;;;62.08;31.85;;;;;;;21.06;58.35;99226.53;5052007;28;20378;-66
2022/10/22 00:17:48;;;;;;;60.92;31.92;;;;;;;21.06;57.77;99231.97;5046738;28;20157;-66
2022/10/22 00:20:37;;;;;;;65.55;35.17;;;;;;;21.05;58.96;99230.31;4994966;28;20143;-66
2022/10/22 00:23:19;;;;;;;60.78;34.75;;;;;;;21.00;59.04;99235.75;5054872;28;20052;-67
2022/10/22 00:26:16;;;;;;;62.30;34.58;;;;;;;21.05;58.46;99235.78;4963426;28;20518;-66
2022/10/22 00:29:05;;;;;;;60.35;32.83;;;;;;;21.06;58.31;99245.63;5030714;28;20049;-66
2022/10/22 00:31:54;;;;;;;52.75;30.83;;;;;;;21.01;58.38;99245.59;5015829;28;20071;-66
2022/10/22 00:34:34;;;;;;;63.55;32.10;;;;;;;20.96;59.78;99242.84;5045000;28;20099;-66
2022/10/22 00:37:24;;;;;;;56.35;32.33;;;;;;;20.84;59.68;99237.66;4997455;28;20059;-66
2022/10/22 00:40:14;;;;;;;57.42;32.88;;;;;;;20.81;60.32;99246.34;5026676;28;20138;-66
2022/10/22 00:42:56;;;;;;;57.13;33.90;;;;;;;20.82;59.71;99243.38;5055874;28;20045;-66
2022/10/22 00:45:45;;;;;;;61.63;34.55;;;;;;;20.80;60.26;99247.47;5022441;28;20062;-66
2022/10/22 00:48:32;;;;;;;65.47;35.30;;;;;;;20.73;60.79;99250.41;4962648;28;20120;-65
2022/10/22 00:51:21;;;;;;;58.13;34.25;;;;;;;20.70;60.99;99249.06;5063954;28;20041;-66
2022/10/22 00:54:06;;;;;;;68.50;35.55;;;;;;;20.75;60.85;99253.72;5064897;28;20063;-65
2022/10/22 00:56:55;;;;;;;61.90;37.42;;;;;;;20.76;60.96;99249.91;5062701;28;20064;-66
2022/10/22 00:59:38;;;;;;;71.13;39.20;;;;;;;20.72;61.16;99254.25;5033345;28;20053;-65
2022/10/22 01:02:27;;;;;;;65.82;38.65;;;;;;;20.66;61.53;99249.88;5046781;28;20045;-66
2022/10/22 01:05:09;;;;;;;75.97;40.63;;;;;;;20.68;62.30;99253.16;5026558;28;20055;-65
2022/10/22 01:08:00;;;;;;;70.47;38.50;;;;;;;20.62;61.43;99259.69;5010075;28;20043;-66
2022/10/22 01:11:14;;;;;;;69.85;37.85;;;;;;;20.65;61.88;99262.66;5048000;28;20053;-66
2022/10/22 01:14:18;;;;;;;70.88;40.40;;;;;;;20.63;62.40;99272.22;5027060;28;20084;-66
2022/10/22 01:17:09;;;;;;;66.68;40.17;;;;;;;20.62;62.40;99278.78;5027336;28;20483;-66
2022/10/22 01:20:13;;;;;;;67.63;37.78;;;;;;;20.63;62.52;99273.03;5029388;28;20363;-66
2022/10/22 01:23:14;;;;;;;68.95;38.25;;;;;;;20.67;61.76;99265.97;5044849;28;20068;-66
2022/10/22 01:26:43;;;;;;;69.68;38.15;;;;;;;20.64;61.60;99269.22;5030107;28;20041;-66
2022/10/22 01:29:39;;;;;;;67.78;39.08;;;;;;;20.67;61.87;99270.59;5026887;28;20045;-66
2022/10/22 01:32:31;;;;;;;65.47;37.70;;;;;;;20.66;62.43;99268.97;5048620;28;20060;-66
2022/10/22 01:35:17;;;;;;;72.93;38.83;;;;;;;20.65;62.54;99270.84;5029507;28;20051;-66
2022/10/22 01:38:11;;;;;;;63.83;39.00;;;;;;;20.57;62.66;99275.97;5065482;28;20055;-66
2022/10/22 01:40:53;;;;;;;59.90;38.17;;;;;;;20.69;62.65;99271.13;5048890;28;20041;-66
2022/10/22 01:43:43;;;;;;;61.35;37.10;;;;;;;20.68;63.42;99280.41;5065173;28;20553;-67
2022/10/22 01:46:27;;;;;;;57.92;35.17;;;;;;;20.83;63.11;99287.84;4963761;28;20058;-67
2022/10/22 01:49:22;;;;;;;62.03;34.05;;;;;;;20.85;63.43;99278.31;5064877;28;20537;-66
2022/10/22 01:52:18;;;;;;;81.90;36.05;;;;;;;20.97;62.99;99297.16;5064847;28;20491;-66
2022/10/22 01:55:21;;;;;;;56.00;33.88;;;;;;;21.04;62.10;99296.91;5049761;28;20072;-65
2022/10/22 01:59:01;;;;;;;64.28;34.47;;;;;;;21.22;61.95;99301.88;5027160;28;20376;-65
2022/10/22 02:01:46;;;;;;;55.05;32.58;;;;;;;21.25;61.76;99314.97;5020325;28;20073;-65
2022/10/22 02:04:47;;;;;;;57.60;31.90;;;;;;;21.31;61.53;99311.16;5056883;28;20117;-65
2022/10/22 02:07:36;;;;;;;56.22;30.65;;;;;;;21.45;61.78;99316.94;5065069;28;20068;-65
2022/10/22 02:10:27;;;;;;;56.38;31.25;;;;;;;21.49;61.96;99323.50;5047292;28;20506;-65
2022/10/22 02:13:21;;;;;;;53.13;30.35;;;;;;;21.55;61.75;99327.06;5062202;28;20118;-65
2022/10/22 02:16:06;;;;;;;67.32;32.38;;;;;;;21.66;61.69;99330.63;5010984;28;20198;-65
2022/10/22 02:19:00;;;;;;;57.65;30.77;;;;;;;21.75;62.07;99341.84;5028525;28;20071;-66
2022/10/22 02:21:42;;;;;;;68.22;32.60;;;;;;;21.78;63.16;99336.66;5044266;28;20052;-65
2022/10/22 02:24:32;;;;;;;65.80;31.40;;;;;;;21.89;63.12;99337.47;4946216;28;20066;-66
2022/10/22 02:27:49;;;;;;;60.65;32.95;;;;;;;22.12;63.25;99338.00;5050076;27;20136;-65
2022/10/22 02:30:42;;;;;;;57.20;29.88;;;;;;;22.23;63.70;99337.72;5033701;28;20365;-66
2022/10/22 02:33:48;;;;;;;54.37;31.70;;;;;;;22.43;61.63;99347.84;4971676;28;20049;-65
2022/10/22 02:36:31;;;;;;;60.78;30.13;;;;;;;22.64;60.11;99353.25;5053531;28;20273;-66
2022/10/22 02:39:21;;;;;;;62.17;29.90;;;;;;;22.80;59.47;99352.13;5068420;28;20056;-66
2022/10/22 02:42:03;;;;;;;57.40;31.13;;;;;;;22.97;58.17;99351.78;4998729;28;20053;-65
2022/10/22 02:44:52;;;;;;;65.13;35.28;;;;;;;22.98;57.25;99347.13;5068421;28;20076;-66
2022/10/22 02:47:35;;;;;;;69.45;36.83;;;;;;;23.06;57.32;99354.78;5068151;28;20040;-66
2022/10/22 02:50:24;;;;;;;82.22;41.03;;;;;;;23.16;56.85;99362.97;5068270;28;20501;-67
2022/10/22 02:53:06;;;;;;;89.93;45.42;;;;;;;23.26;56.56;99354.69;5068818;28;20467;-65
2022/10/22 02:55:55;;;;;;;93.47;48.05;;;;;;;23.45;56.65;99363.06;5068415;28;20060;-65
2022/10/22 02:58:37;;;;;;;95.47;52.03;;;;;;;23.59;55.25;99367.91;5067949;28;20048;-66
2022/10/22 03:01:26;;;;;;;97.55;51.90;;;;;;;23.68;55.27;99365.41;5068012;28;20044;-65
2022/10/22 03:04:15;;;;;;;102.22;50.90;;;;;;;23.88;55.26;99368.00;5066432;28;20147;-66
2022/10/22 03:06:57;;;;;;;99.65;51.75;;;;;;;23.99;55.05;99377.78;5068088;28;20110;-66
2022/10/22 03:09:46;;;;;;;91.45;47.35;;;;;;;24.23;52.69;99382.53;5067579;28;20125;-65
2022/10/22 03:12:28;;;;;;;63.42;35.40;;;;;;;24.21;50.95;99384.75;5045687;28;20052;-66
2022/10/22 03:15:17;;;;;;;59.70;31.80;;;;;;;24.29;52.22;99380.56;5047072;28;20122;-66
2022/10/22 03:18:00;;;;;;;63.03;29.75;;;;;;;24.37;50.20;99383.50;5047926;28;20110;-66
2022/10/22 03:20:49;;;;;;;66.03;29.42;;;;;;;24.38;50.35;99393.38;5047090;28;20126;-66
2022/10/22 03:23:32;;;;;;;56.17;28.30;;;;;;;24.60;49.75;99392.91;5047117;28;20053;-65
2022/10/22 03:26:28;;;;;;;62.08;30.52;;;;;;;24.51;47.82;99391.03;4946187;28;20071;-66
2022/10/22 03:29:19;;;;;;;61.72;31.58;;;;;;;24.52;45.97;99399.03;5038816;28;20045;-66
2022/10/22 03:32:08;;;;;;;57.83;28.65;;;;;;;24.90;46.91;99410.16;5047094;28;20073;-66
2022/10/22 03:34:50;;;;;;;59.67;31.23;;;;;;;25.06;47.66;99416.28;5041476;28;20056;-66
2022/10/22 03:37:45;;;;;;;70.97;38.13;;;;;;;24.97;46.87;99418.03;5046512;28;20055;-66
2022/10/22 03:40:34;;;;;;;108.63;49.97;;;;;;;24.90;43.62;99417.59;5046702;28;20400;-66
2022/10/22 03:43:23;;;;;;;115.10;54.15;;;;;;;24.90;44.48;99420.31;5046692;28;20048;-65
2022/10/22 03:46:05;;;;;;;100.30;47.80;;;;;;;25.16;45.67;99416.16;5047026;28;20040;-66
2022/10/22 03:48:54;;;;;;;94.07;43.75;;;;;;;25.27;45.49;99429.81;5047016;28;20068;-67
2022/10/22 03:51:49;;;;;;;82.45;39.22;;;;;;;25.54;44.52;99427.22;5047016;28;20065;-65
2022/10/22 03:54:24;;;;;;;58.95;30.55;;;;;;;25.75;44.23;99430.50;5046677;28;20041;-66
2022/10/22 03:57:19;;;;;;;57.60;27.38;;;;;;;26.08;44.63;99430.63;5031568;28;20578;-66
2022/10/22 03:59:54;;;;;;;42.55;20.98;;;;;;;26.28;41.52;99423.16;5027177;28;20052;-65
2022/10/22 04:02:44;;;;;;;49.03;22.95;;;;;;;26.74;42.73;99419.59;5026685;28;20057;-66
2022/10/22 04:05:26;;;;;;;38.78;17.77;;;;;;;27.02;41.20;99430.63;5031483;28;20443;-66
2022/10/22 04:08:22;;;;;;;39.45;17.92;;;;;;;27.42;41.81;99429.00;5046366;28;20052;-67
2022/10/22 04:10:57;;;;;;;45.67;22.20;;;;;;;27.72;39.60;99423.94;5046304;28;20148;-66
2022/10/22 04:13:52;;;;;;;42.10;23.05;;;;;;;27.78;39.54;99433.72;5045857;28;20048;-66
2022/10/22 04:16:29;;;;;;;48.70;24.70;;;;;;;28.01;40.17;99423.59;5026879;28;20052;-67
2022/10/22 04:19:19;;;;;;;49.88;25.13;;;;;;;28.40;37.79;99433.09;5045606;28;20489;-66
2022/10/22 04:22:04;;;;;;;41.92;22.27;;;;;;;28.67;37.85;99434.91;5046105;28;20906;-66
2022/10/22 04:24:53;;;;;;;38.88;20.55;;;;;;;28.89;36.86;99435.97;5045750;28;20052;-66
2022/10/22 04:27:48;;;;;;;41.88;22.15;;;;;;;28.86;36.07;99436.63;5057257;28;20049;-66
2022/10/22 04:30:37;;;;;;;42.78;21.08;;;;;;;29.18;36.57;99440.19;5066493;28;20480;-65
2022/10/22 04:33:26;;;;;;;40.15;20.27;;;;;;;29.37;35.99;99443.50;5011020;28;20055;-67
2022/10/22 04:36:10;;;;;;;45.60;20.17;;;;;;;29.42;34.48;99437.81;5066876;28;20632;-69
2022/10/22 04:39:05;;;;;;;34.45;19.85;;;;;;;29.66;35.36;99439.31;5065934;28;20369;-67
2022/10/22 04:41:47;;;;;;;32.75;18.45;;;;;;;30.15;35.69;99445.56;5057916;28;20101;-67
2022/10/22 04:44:36;;;;;;;32.50;17.83;;;;;;;30.38;38.07;99443.44;5062057;28;20063;-67
2022/10/22 04:47:25;;;;;;;37.70;18.15;;;;;;;30.17;36.87;99451.56;5065500;28;20105;-67
2022/10/22 04:50:00;;;;;;;40.53;18.65;;;;;;;29.81;34.94;99454.69;5065780;28;20056;-67
2022/10/22 04:52:49;;;;;;;36.40;17.90;;;;;;;30.11;37.12;99458.41;5065482;28;20063;-68
2022/10/22 04:55:31;;;;;;;31.05;17.10;;;;;;;30.12;33.98;99451.72;5059216;28;20049;-68
2022/10/22 04:58:20;;;;;;;30.85;17.13;;;;;;;30.55;36.83;99455.59;4964597;28;20112;-68
2022/10/22 05:01:13;;;;;;;34.53;18.98;;;;;;;30.32;33.93;99452.22;5061429;28;20060;-68
2022/10/22 05:04:04;;;;;;;38.03;18.25;;;;;;;30.61;35.32;99449.56;5056011;28;20052;-68
2022/10/22 05:06:46;;;;;;;41.58;18.25;;;;;;;30.17;34.58;99446.03;5055978;28;20118;-69
2022/10/22 05:09:35;;;;;;;40.42;20.38;;;;;;;30.32;35.81;99447.50;5054665;28;20061;-70
2022/10/22 05:12:24;;;;;;;45.30;19.58;;;;;;;30.72;35.03;99444.47;4952991;28;20051;-65
2022/10/22 05:15:07;;;;;;;44.05;20.08;;;;;;;30.31;33.98;99447.81;5055742;28;20044;-68
2022/10/22 05:18:10;;;;;;;40.45;18.77;;;;;;;30.69;35.86;99434.06;5038723;28;20689;-67
2022/10/22 05:21:03;;;;;;;37.28;17.05;;;;;;;31.39;33.59;99447.63;5049807;28;20823;-68
2022/10/22 05:23:54;;;;;;;37.10;15.23;;;;;;;30.63;33.35;99433.44;4944983;28;20143;-67
2022/10/22 05:26:36;;;;;;;26.67;14.43;;;;;;;30.90;33.61;99439.72;5045078;28;20056;-67
2022/10/22 05:29:26;;;;;;;31.67;15.60;;;;;;;30.91;33.79;99430.25;5024914;28;20725;-68
2022/10/22 05:32:08;;;;;;;27.17;13.05;;;;;;;31.02;32.59;99433.47;5025832;28;20107;-67
2022/10/22 05:34:57;;;;;;;24.30;12.27;;;;;;;30.92;34.86;99431.09;5038606;28;20055;-68
2022/10/22 05:37:39;;;;;;;24.00;13.40;;;;;;;30.98;31.44;99427.78;5044782;28;20053;-69
2022/10/22 05:40:28;;;;;;;29.83;14.05;;;;;;;30.83;32.98;99428.31;5012648;28;20553;-67
2022/10/22 05:43:11;;;;;;;28.77;12.95;;;;;;;31.11;33.08;99423.16;5044846;28;20052;-67
2022/10/22 05:46:00;;;;;;;33.17;13.73;;;;;;;30.80;32.19;99426.19;5045254;28;20048;-67
2022/10/22 05:48:43;;;;;;;30.15;14.43;;;;;;;31.12;33.23;99418.44;5044901;28;20069;-65
2022/10/22 05:51:34;;;;;;;29.73;12.52;;;;;;;31.24;31.65;99415.75;5007629;28;20048;-67
2022/10/22 05:54:18;;;;;;;27.25;12.20;;;;;;;30.66;31.89;99411.75;5024622;28;20072;-65
2022/10/22 05:57:08;;;;;;;24.50;11.77;;;;;;;31.16;36.09;99413.84;5039823;28;20044;-65
2022/10/22 05:59:50;;;;;;;21.58;12.05;;;;;;;31.26;31.90;99402.38;5046650;28;20215;-65
2022/10/22 06:02:39;;;;;;;16.90;10.73;;;;;;;30.88;29.72;99405.13;5046319;28;20072;-67
2022/10/22 06:05:22;;;;;;;25.55;12.00;;;;;;;31.36;32.66;99393.66;5036768;28;20045;-66
2022/10/22 06:08:11;;;;;;;22.13;12.10;;;;;;;31.27;34.29;99398.44;5046518;28;20115;-67
2022/10/22 06:11:00;;;;;;;17.77;10.27;;;;;;;31.71;31.74;99398.16;5036301;28;20041;-66
2022/10/22 06:13:50;;;;;;;19.23;11.63;;;;;;;31.49;31.32;99390.97;5019028;28;20061;-64
2022/10/22 06:16:32;;;;;;;28.60;13.40;;;;;;;31.35;33.60;99388.44;5027761;28;20087;-65
2022/10/22 06:19:25;;;;;;;24.05;13.27;;;;;;;31.44;38.66;99385.63;5024798;28;20312;-65
2022/10/22 06:22:08;;;;;;;27.25;12.50;;;;;;;31.17;34.53;99379.44;5042716;28;20060;-67
2022/10/22 06:24:58;;;;;;;26.52;12.55;;;;;;;30.56;36.67;99374.16;5046705;28;20053;-65
2022/10/22 06:27:57;;;;;;;43.38;13.55;;;;;;;31.07;38.23;99375.09;5056815;28;20116;-66
2022/10/22 06:30:53;;;;;;;29.90;13.45;;;;;;;30.98;33.03;99366.00;5073935;28;20055;-66
2022/10/22 06:33:31;;;;;;;22.75;11.75;;;;;;;31.15;37.49;99363.13;5059261;28;20064;-66
2022/10/22 06:36:29;;;;;;;28.48;13.82;;;;;;;31.29;35.66;99362.88;5062912;28;20060;-69
2022/10/22 06:39:05;;;;;;;24.45;12.60;;;;;;;30.54;32.30;99363.38;5066435;28;20056;-67
2022/10/22 06:41:54;;;;;;;25.73;13.15;;;;;;;30.97;34.02;99356.84;5040063;28;20045;-69
2022/10/22 06:44:40;;;;;;;23.42;12.20;;;;;;;30.83;33.28;99350.72;4949528;28;20055;-66
2022/10/22 06:47:35;;;;;;;23.55;13.43;;;;;;;30.95;33.67;99336.97;5059249;28;20048;-70
2022/10/22 06:50:11;;;;;;;29.85;13.55;;;;;;;31.18;34.38;99345.81;5051222;28;20060;-68
2022/10/22 06:53:00;;;;;;;37.13;14.52;;;;;;;31.29;34.60;99339.88;5020602;28;20776;-68
2022/10/22 06:55:42;;;;;;;27.65;15.23;;;;;;;31.15;33.16;99334.59;5059041;28;20057;-69
2022/10/22 06:58:31;;;;;;;31.80;13.65;;;;;;;31.63;33.86;99330.50;5036308;28;20103;-68
2022/10/22 07:01:16;;;;;;;27.73;13.13;;;;;;;31.89;33.30;99327.47;4958799;28;20046;-67
2022/10/22 07:04:07;;;;;;;19.42;11.48;;;;;;;31.41;29.97;99320.50;5061118;28;20067;-67
2022/10/22 07:06:57;;;;;;;26.10;13.00;;;;;;;31.12;31.07;99322.19;4963663;28;20047;-69
2022/10/22 07:09:39;;;;;;;24.08;11.52;;;;;;;31.53;31.85;99319.81;5055085;28;20102;-68
2022/10/22 07:12:28;;;;;;;35.72;12.18;;;;;;;31.22;28.58;99313.50;5054782;28;21900;-73
2022/10/22 07:15:10;;;;;;;16.60;9.60;;;;;;;31.13;29.68;99298.06;5055627;28;20431;-70
2022/10/22 07:17:59;;;;;;;19.55;9.85;;;;;;;31.61;29.59;99297.53;5059642;28;20037;-70
2022/10/22 07:20:41;;;;;;;29.88;11.60;;;;;;;31.99;30.93;99285.41;5060954;28;20535;-73
2022/10/22 07:23:32;;;;;;;22.88;11.23;;;;;;;32.14;29.51;99281.19;5012680;28;20060;-71
2022/10/22 07:26:29;;;;;;;28.05;11.30;;;;;;;31.86;31.59;99280.97;4698256;28;10000300;-72
2022/10/22 07:29:14;;;;;;;20.70;11.15;;;;;;;31.28;27.74;99278.06;5059502;28;20044;-73
2022/10/22 07:32:03;;;;;;;22.92;10.00;;;;;;;31.27;28.17;99270.88;5036216;28;20534;-70
2022/10/22 07:34:45;;;;;;;24.60;10.63;;;;;;;31.22;28.32;99273.84;5061903;28;20543;-73
2022/10/22 07:37:34;;;;;;;23.42;10.90;;;;;;;31.62;30.32;99270.59;5045591;28;20056;-64
2022/10/22 07:40:16;;;;;;;21.55;11.85;;;;;;;31.33;29.86;99263.16;5064175;28;20079;-69
2022/10/22 07:43:05;;;;;;;24.73;12.32;;;;;;;31.35;29.72;99267.22;5045649;28;20053;-67
2022/10/22 07:45:47;;;;;;;22.35;11.77;;;;;;;31.29;28.64;99256.69;5019379;28;20049;-68
2022/10/22 07:48:36;;;;;;;25.27;12.13;;;;;;;31.47;33.14;99255.41;5043350;28;20191;-68
2022/10/22 07:51:18;;;;;;;30.65;14.15;;;;;;;31.63;31.12;99244.47;5053135;28;20143;-69
2022/10/22 07:54:07;;;;;;;32.78;13.70;;;;;;;31.43;29.96;99251.66;5050530;28;20145;-66
2022/10/22 07:56:48;;;;;;;28.38;13.90;;;;;;;31.57;29.82;99241.09;5054798;28;20045;-67
2022/10/22 07:59:38;;;;;;;32.78;14.25;;;;;;;31.03;29.09;99230.78;5056361;28;20052;-69
2022/10/22 08:02:19;;;;;;;36.95;15.35;;;;;;;30.96;29.79;99221.41;5052990;28;20076;-69
2022/10/22 08:05:09;;;;;;;41.45;18.30;;;;;;;30.39;29.24;99225.47;5073699;28;20128;-68
2022/10/22 08:07:51;;;;;;;50.25;19.45;;;;;;;30.97;30.84;99214.69;5016246;28;20111;-69
2022/10/22 08:10:40;;;;;;;33.72;18.35;;;;;;;30.80;29.58;99213.66;5035118;28;20052;-70
2022/10/22 08:13:29;;;;;;;34.22;15.65;;;;;;;30.82;29.97;99211.34;5051870;28;20479;-68
2022/10/22 08:16:12;;;;;;;39.45;14.00;;;;;;;30.93;31.66;99199.88;4696151;28;10000933;-69
2022/10/22 08:19:01;;;;;;;38.92;17.50;;;;;;;31.19;32.22;99202.44;5062563;28;20072;-70
2022/10/22 08:30:59;;;;;;;43.10;19.50;;;;;;;31.19;32.09;99183.03;5051925;28;20048;-70
2022/10/22 08:34:08;;;;;;;32.10;15.45;;;;;;;30.99;31.03;99185.50;5304218;22;20354;31
2022/10/22 08:37:13;;;;;;;35.90;14.30;;;;;;;30.89;30.96;99173.97;4561726;29;10001119;-72
2022/10/22 08:40:02;;;;;;;38.83;15.63;;;;;;;31.25;30.51;99165.03;4919094;29;20051;-71
2022/10/22 08:42:53;;;;;;;27.02;14.10;;;;;;;31.32;29.41;99165.31;4925468;29;20075;-70
2022/10/22 08:46:21;;;;;;;28.98;13.52;;;;;;;31.63;30.19;99160.44;4930305;29;20056;-71
2022/10/22 08:49:19;;;;;;;21.95;11.65;;;;;;;31.43;30.28;99151.78;4931882;29;20047;-72
2022/10/22 08:52:10;;;;;;;29.90;12.88;;;;;;;31.30;31.42;99147.34;4930967;29;20055;-71
2022/10/22 08:54:58;;;;;;;26.70;13.07;;;;;;;31.54;30.24;99139.13;4933567;29;20062;-72
2022/10/22 08:57:56;;;;;;;30.95;11.88;;;;;;;31.24;30.73;99141.22;4925490;29;20059;-71
2022/10/22 09:00:58;;;;;;;45.63;14.30;;;;;;;31.40;31.21;99130.31;4907434;29;20495;-72
2022/10/22 09:04:24;;;;;;;28.27;14.67;;;;;;;31.34;30.09;99126.13;4913678;29;20047;-73
2022/10/22 09:07:13;;;;;;;28.60;13.77;;;;;;;31.10;29.03;99115.78;4868531;29;20064;-72
2022/10/22 09:10:00;;;;;;;26.17;14.80;;;;;;;31.31;30.86;99110.97;4927599;29;20052;-71
2022/10/22 09:12:49;;;;;;;31.15;14.40;;;;;;;31.06;32.14;99109.28;4921770;29;20142;-72
2022/10/22 09:15:38;;;;;;;36.08;15.55;;;;;;;31.31;32.76;99113.75;4908858;29;20763;-73
2022/10/22 09:18:54;;;;;;;30.10;14.70;;;;;;;31.40;32.67;99103.38;4908005;29;20044;-70
2022/10/22 09:21:58;;;;;;;33.58;14.95;;;;;;;31.12;31.26;99094.84;4888326;29;20089;-72
2022/10/22 09:24:43;;;;;;;38.78;15.27;;;;;;;31.13;31.26;99093.72;4889776;29;20052;-69
2022/10/22 09:27:36;;;;;;;39.80;15.85;;;;;;;31.27;32.49;99092.59;4905973;29;20060;-70
2022/10/22 09:30:21;;;;;;;42.20;14.98;;;;;;;31.42;33.03;99095.50;4891624;29;20048;-69
2022/10/22 09:33:14;;;;;;;25.00;13.95;;;;;;;31.46;32.79;99089.28;4920668;28;20102;-69
2022/10/22 09:36:02;;;;;;;30.58;13.18;;;;;;;31.17;45.68;99091.06;4946508;28;20102;-73
2022/10/22 09:38:54;;;;;;;26.20;13.70;;;;;;;30.74;35.05;99081.19;4944373;28;20764;-71
2022/10/22 09:41:37;;;;;;;25.95;14.45;;;;;;;31.00;34.34;99084.56;4917009;28;20074;-72
2022/10/22 09:44:27;;;;;;;32.45;15.07;;;;;;;31.07;34.43;99077.63;4934576;28;20139;-72
2022/10/22 09:47:38;;;;;;;26.10;14.40;;;;;;;31.02;33.00;99079.47;4944986;28;20549;-73
2022/10/22 09:50:52;;;;;;;33.65;15.43;;;;;;;30.93;34.38;99073.19;4944566;28;20392;-72
2022/10/22 09:53:41;;;;;;;28.70;13.70;;;;;;;31.04;33.32;99062.50;4942376;28;20062;-70
2022/10/22 09:56:54;;;;;;;30.45;13.63;;;;;;;30.97;33.62;99068.59;4945576;28;20043;-73
2022/10/22 09:59:41;;;;;;;26.27;13.98;;;;;;;30.80;32.85;99064.03;4911906;29;20051;-69
2022/10/22 10:02:34;;;;;;;30.20;13.38;;;;;;;30.67;32.75;99058.75;4924775;29;20059;-71
2022/10/22 10:05:40;;;;;;;27.27;13.23;;;;;;;30.76;33.14;99051.19;4925632;29;20050;-72
2022/10/22 10:08:17;;;;;;;23.75;13.18;;;;;;;30.83;33.11;99057.78;4923597;29;20055;-70
2022/10/22 10:11:23;;;;;;;24.35;13.10;;;;;;;30.98;32.94;99055.56;4926000;29;20055;-71
2022/10/22 10:14:31;;;;;;;23.73;13.38;;;;;;;30.72;33.37;99051.03;4894878;29;20636;-69
2022/10/22 10:17:45;;;;;;;24.27;11.82;;;;;;;30.63;31.00;99051.13;4926565;29;20048;-70
2022/10/22 10:20:41;;;;;;;27.08;11.95;;;;;;;30.26;31.07;99048.13;4949359;28;20117;-70
2022/10/22 10:23:39;;;;;;;27.23;12.55;;;;;;;30.56;30.84;99047.28;4927652;29;20107;-69
2022/10/22 10:26:20;;;;;;;20.60;10.20;;;;;;;30.55;30.87;99049.22;4927874;29;20063;-71
2022/10/22 10:29:24;;;;;;;31.08;11.93;;;;;;;30.30;31.80;99047.47;4927647;29;20443;-72
2022/10/22 10:32:12;;;;;;;29.25;11.98;;;;;;;30.45;30.97;99044.91;4963999;28;20129;-72
2022/10/22 10:35:27;;;;;;;17.73;10.15;;;;;;;30.60;29.53;99051.00;4944370;28;20074;-73
2022/10/22 10:38:47;;;;;;;19.55;10.18;;;;;;;30.36;31.43;99054.44;4965825;28;20146;-74
2022/10/22 10:41:56;;;;;;;20.33;9.07;;;;;;;30.14;31.22;99050.03;4912208;29;20048;-70
2022/10/22 10:44:54;;;;;;;21.17;8.50;;;;;;;30.33;29.64;99046.84;4944913;28;20062;-70
2022/10/22 10:48:04;;;;;;;18.10;9.40;;;;;;;30.17;32.13;99047.41;4950518;29;20078;-70
2022/10/22 10:51:22;;;;;;;22.63;9.02;;;;;;;30.04;34.54;99054.00;4938220;28;20082;-70
2022/10/22 10:54:18;;;;;;;20.77;8.40;;;;;;;29.93;30.47;99036.97;4945791;29;20762;-71
2022/10/22 10:57:49;;;;;;;20.00;9.27;;;;;;;29.92;32.26;99040.06;4952943;28;20081;-71
2022/10/22 11:00:59;;;;;;;24.25;9.65;;;;;;;29.96;34.12;99041.00;4924195;28;20043;-70
2022/10/22 11:03:41;;;;;;;21.80;10.10;;;;;;;29.79;33.67;99042.75;4964306;28;20065;-70
2022/10/22 11:06:39;;;;;;;38.13;11.45;;;;;;;29.71;34.95;99038.03;4950736;28;20109;-71
2022/10/22 11:09:17;;;;;;;25.60;13.00;;;;;;;29.79;35.75;99039.16;4965916;28;20054;-70
2022/10/22 11:12:22;;;;;;;28.20;10.98;;;;;;;29.67;36.97;99039.84;4969884;28;20537;-70
2022/10/22 11:15:29;;;;;;;26.48;10.57;;;;;;;29.54;37.22;99041.72;4948745;28;20140;-71
2022/10/22 11:18:36;;;;;;;23.35;11.68;;;;;;;29.39;39.25;99045.03;4968427;28;20054;-70
2022/10/22 11:21:32;;;;;;;20.80;11.05;;;;;;;29.32;39.11;99041.97;4969386;28;20098;-71
2022/10/22 11:24:36;;;;;;;34.33;13.40;;;;;;;29.31;37.98;99049.44;4968482;28;20128;-71
2022/10/22 11:27:31;;;;;;;31.02;11.27;;;;;;;29.17;36.27;99048.84;4969056;28;20439;-71
2022/10/22 11:30:29;;;;;;;24.75;11.80;;;;;;;29.11;41.48;99044.59;4951945;28;20109;-71
2022/10/22 11:33:15;;;;;;;30.77;11.68;;;;;;;29.07;38.96;99050.78;4969035;28;20447;-71
2022/10/22 11:36:13;;;;;;;27.30;11.38;;;;;;;29.01;40.59;99048.53;4960335;28;20059;-71
2022/10/22 11:39:03;;;;;;;23.27;12.05;;;;;;;28.84;41.61;99052.13;4964246;28;20050;-70
2022/10/22 11:41:54;;;;;;;26.67;12.10;;;;;;;28.75;44.00;99052.13;4966199;28;20070;-71
2022/10/22 11:44:47;;;;;;;30.85;11.48;;;;;;;28.63;41.99;99052.00;4949031;28;20098;-72
2022/10/22 11:48:13;;;;;;;43.75;13.02;;;;;;;28.59;44.11;99054.59;4934147;28;20056;-71
2022/10/22 11:51:01;;;;;;;35.55;12.63;;;;;;;28.44;44.14;99050.34;4943844;29;20814;-71
2022/10/22 11:53:50;;;;;;;34.00;13.57;;;;;;;28.27;45.19;99051.13;4949615;28;20055;-70
2022/10/22 11:56:39;;;;;;;34.63;14.45;;;;;;;28.22;43.90;99054.06;4948133;28;20051;-70
2022/10/22 11:59:45;;;;;;;27.85;13.55;;;;;;;28.15;46.90;99058.44;4934681;28;20059;-70
2022/10/22 12:02:44;;;;;;;33.47;14.18;;;;;;;27.98;45.35;99064.75;4949130;28;20058;-70
2022/10/22 12:05:33;;;;;;;47.60;15.07;;;;;;;27.83;47.15;99063.22;4948404;29;20051;-71
2022/10/22 12:08:21;;;;;;;43.10;15.35;;;;;;;27.81;46.66;99063.53;4949321;28;20740;-71
2022/10/22 12:11:52;;;;;;;36.15;14.93;;;;;;;27.74;48.88;99063.16;4948999;28;20067;-71
2022/10/22 12:14:58;;;;;;;39.67;15.07;;;;;;;27.69;46.98;99068.84;4948768;29;20162;-71
2022/10/22 12:17:40;;;;;;;40.75;14.73;;;;;;;27.59;48.64;99071.88;4949092;28;20051;-71
2022/10/22 12:20:29;;;;;;;39.25;15.43;;;;;;;27.59;46.71;99074.63;4949212;28;20625;-70
2022/10/22 12:23:12;;;;;;;35.60;14.55;;;;;;;27.50;46.69;99075.41;4949128;28;20423;-72
2022/10/22 12:26:10;;;;;;;47.30;15.75;;;;;;;27.45;48.50;99083.81;4949427;28;20462;-70
2022/10/22 12:28:45;;;;;;;40.63;15.65;;;;;;;27.39;48.65;99081.53;4954307;28;20047;-69
2022/10/22 12:31:39;;;;;;;49.38;18.02;;;;;;;27.37;48.54;99075.53;4948703;28;20819;-70
2022/10/22 12:34:28;;;;;;;47.00;16.60;;;;;;;27.24;48.65;99079.94;4947757;29;20047;-69
2022/10/22 12:37:25;;;;;;;53.25;17.38;;;;;;;27.20;47.84;99078.97;4929334;29;20103;-69
2022/10/22 12:40:00;;;;;;;37.65;17.60;;;;;;;27.10;48.59;99080.84;4913651;29;20070;-71
2022/10/22 12:43:00;;;;;;;44.08;17.17;;;;;;;27.01;49.00;99082.72;4927011;29;20035;-70
2022/10/22 12:45:36;;;;;;;52.85;18.45;;;;;;;26.92;49.54;99092.88;4932905;29;20138;-71
2022/10/22 12:48:36;;;;;;;43.45;18.58;;;;;;;26.89;50.80;99099.03;4931096;29;20473;-68
2022/10/22 12:51:26;;;;;;;46.50;17.05;;;;;;;26.81;47.85;99094.25;4909403;29;20075;-68
2022/10/22 12:54:17;;;;;;;52.45;18.40;;;;;;;26.73;50.11;99096.63;4909148;29;20074;-70
2022/10/22 12:57:08;;;;;;;53.72;18.15;;;;;;;26.60;51.29;99094.75;4913364;29;20162;-67
2022/10/22 12:59:51;;;;;;;46.58;19.65;;;;;;;26.61;51.55;99095.56;4942557;29;20062;-69
2022/10/22 13:02:45;;;;;;;41.72;18.58;;;;;;;26.55;52.53;99092.06;4931109;29;20490;-69
2022/10/22 13:05:38;;;;;;;51.97;19.23;;;;;;;26.42;51.99;99093.72;4230178;29;10000955;-69
2022/10/22 13:08:32;;;;;;;45.45;18.85;;;;;;;26.43;51.03;99100.06;4920837;28;20107;-70
2022/10/22 13:11:20;;;;;;;49.92;18.85;;;;;;;26.38;50.87;99104.53;4910616;29;20658;-72
2022/10/22 13:14:24;;;;;;;52.70;19.73;;;;;;;26.36;49.04;99097.72;4925814;29;20059;-71
2022/10/22 13:17:41;;;;;;;54.00;17.75;;;;;;;26.31;51.10;99114.34;4912903;29;20048;-70